Hovedside
METAR-TAF:

METAR-TAF

Lufthavner :

Fort-de-France, Martinique

breddegrad: 14-36N, lengdegrad: 061-00W, høyde over havet: 5 m

Gjeldene værobservasjon

Denne rapporten ble laget for 21 minutter siden, klokken 17:30 UTC
Vind 13 kt fra Sørøst
Temperatur 31°C
Luftfuktighet 63%
Trykk 1009 hPa
Sikt 10 km eller mer

METAR: TFFF 211730Z AUTO 13013KT 9999 SCT027/// BKN042/// BKN080/// ///TCU 31/23 Q1009 TEMPO 4000 SHRA

Tid: 13:51 (17:51 UTC)

Varsel

Denne rapporten ble laget for 51 minutter siden, klokken 17:00 UTC
Varsel gyldig fra 21. klokken 18 UTC til 22. klokken 18 UTC
Vind 8 kt fra Øst
Sikt 10 km eller mer
Spredte skyer i en høyde av 2500 ft
Midlertidig
fra 21. klokken 18 UTC til 22. klokken 12 UTC
Sikt: 4000 m
Spredte skyer i en høyde av 1800 ft, Tårnskyer (cumulus).
regnbyger

TAF: TFFF 211700Z 2118/2218 10008KT 9999 SCT025 TEMPO 2118/2212 4000 SHRA SCT018TCU

Værobservasjoner og værvarsel for over 4000 flyplasser (METAR- og TAF-rapporter).

Tilgjengelige stasjoner er representert av de røde og gule prikkene på kartet.

Hold musepekeren over prikken for å se navnet på stasjonen.

Klikk så for å se værobservasjoner og -varsler.

For å forandre kartet kan du klikke på den grønne knappen med svart kryss for å zoome inn, på den grønne knappen med strek for å zoome ut, eller på de grønne pilene for å se tilstøtende kart.


METAR-TAF: